Time;durP1;ratioP1;P1;durP2;ratioP2;P2;SDS_P1;SDS_P2;PMS_P1;PMS_P2;Temp;Humidity;BMP_temperature;BMP_pressure;BME280_temperature;BME280_humidity;BME280_pressure;Samples;Min_cycle;Max_cycle;Signal;HPM_P1;HPM_P2
2021/07/22 00:01:56;;;;;;;15.23;11.70;;;20.20;99.90;;;20.73;59.70;101834.72;4964754;28;99832;-57
2021/07/22 00:04:22;;;;;;;14.87;11.70;;;20.20;99.90;;;20.78;61.46;101836.16;4964781;28;119470;-54
2021/07/22 00:06:48;;;;;;;13.90;11.97;;;20.20;99.90;;;20.79;59.39;101839.69;4966357;28;99293;-51
2021/07/22 00:09:14;;;;;;;13.00;11.40;;;20.20;99.90;;;20.76;59.35;101837.19;4964105;28;105747;-54
2021/07/22 00:11:44;;;;;;;12.83;11.50;;;20.20;99.90;;;20.73;60.32;101832.03;4965423;28;97852;-57
2021/07/22 00:14:10;;;;;;;12.63;11.30;;;20.20;99.90;;;20.78;61.50;101836.16;4973472;28;99394;-51
2021/07/22 00:16:36;;;;;;;14.33;10.97;;;20.20;99.90;;;20.78;60.33;101825.44;4964274;28;110563;-51
2021/07/22 00:19:02;;;;;;;12.60;10.90;;;20.20;99.90;;;20.74;59.04;101833.75;4965844;28;97206;-56
2021/07/22 00:21:27;;;;;;;12.97;10.80;;;20.20;99.90;;;20.73;59.23;101827.53;4963284;28;101806;-54
2021/07/22 00:23:53;;;;;;;12.10;10.83;;;20.20;99.90;;;20.68;59.97;101828.75;4981072;28;98501;-52
2021/07/22 00:26:19;;;;;;;15.63;11.30;;;20.10;99.90;;;20.71;60.78;101823.22;4963321;28;99285;-54
2021/07/22 00:28:45;;;;;;;13.70;11.60;;;20.10;99.90;;;20.76;61.27;101821.13;4969588;28;99361;-48
2021/07/22 00:31:10;;;;;;;13.37;11.37;;;20.20;99.90;;;20.77;60.77;101825.53;4968800;28;107182;-54
2021/07/22 00:33:36;;;;;;;14.50;10.87;;;20.20;99.90;;;20.75;60.38;101825.63;4960349;28;127321;-50
2021/07/22 00:36:08;;;;;;;17.23;12.63;;;20.20;99.90;;;20.79;61.39;101826.28;4966806;28;97302;-51
2021/07/22 00:38:33;;;;;;;12.67;11.33;;;20.20;99.90;;;20.81;61.01;101824.38;4965120;28;98773;-49
2021/07/22 00:40:59;;;;;;;12.20;10.77;;;20.20;99.90;;;20.79;60.53;101826.28;4966881;28;99742;-51
2021/07/22 00:43:26;;;;;;;13.60;11.30;;;20.20;99.90;;;20.77;60.95;101812.97;4959565;28;98142;-48
2021/07/22 00:45:52;;;;;;;12.33;10.87;;;20.20;99.90;;;20.73;59.89;101829.34;4969363;28;98399;-49
2021/07/22 00:48:17;;;;;;;13.03;11.23;;;20.20;99.90;;;20.71;60.79;101812.50;4951932;28;97726;-52
2021/07/22 00:50:43;;;;;;;12.73;10.97;;;20.10;99.90;;;20.71;60.76;101823.22;4965643;28;114337;-56
2021/07/22 00:53:09;;;;;;;12.93;11.00;;;20.10;99.90;;;20.71;59.97;101812.50;4981397;28;102161;-53
2021/07/22 00:55:35;;;;;;;12.03;10.77;;;20.20;99.90;;;20.69;60.53;101825.13;4959270;28;107274;-51
2021/07/22 00:58:01;;;;;;;13.30;11.33;;;20.10;99.90;;;20.74;61.39;101817.66;4950156;28;98826;-55
2021/07/22 01:00:26;;;;;;;13.10;11.70;;;20.20;99.90;;;20.78;61.49;101813.84;4945935;28;99576;-52
2021/07/22 01:02:52;;;;;;;11.60;10.23;;;20.20;99.90;;;20.76;60.15;101813.06;4969187;28;99481;-51
2021/07/22 01:05:18;;;;;;;12.50;11.20;;;20.20;99.90;;;20.72;60.44;101815.09;4980095;28;97976;-58
2021/07/22 01:07:44;;;;;;;11.43;10.23;;;20.10;99.90;;;20.70;60.46;101816.13;4948050;28;98248;-50
2021/07/22 01:10:10;;;;;;;14.40;10.73;;;20.10;99.90;;;20.67;60.29;101816.28;4961449;28;119086;-55
2021/07/22 01:12:36;;;;;;;12.83;10.80;;;20.00;99.90;;;20.62;60.59;101824.63;4963747;28;98044;-50
2021/07/22 01:15:03;;;;;;;13.10;10.20;;;20.00;99.90;;;20.63;61.81;101820.13;4964536;28;109383;-55
2021/07/22 01:17:48;;;;;;;12.33;10.37;;;20.00;99.90;;;20.68;61.21;101820.69;4961097;28;98716;-49
2021/07/22 01:20:20;;;;;;;11.73;10.40;;;20.00;99.90;;;20.65;60.93;101812.84;4967496;28;100340;-54
2021/07/22 01:22:48;;;;;;;13.40;10.53;;;20.00;99.90;;;20.63;60.91;101820.13;4961928;28;103383;-51
2021/07/22 01:25:14;;;;;;;11.53;10.20;;;20.00;99.90;;;20.70;61.98;101821.50;4972405;28;99050;-51
2021/07/22 01:27:41;;;;;;;10.80;9.70;;;20.10;99.90;;;20.70;60.25;101816.13;4978263;28;98974;-53
2021/07/22 01:30:08;;;;;;;12.63;10.00;;;20.10;99.90;;;20.69;60.65;101819.78;4969431;28;98872;-52
2021/07/22 01:32:34;;;;;;;13.57;10.17;;;20.10;99.90;;;20.71;59.88;101824.09;4964035;28;100503;-56
2021/07/22 01:35:01;;;;;;;12.30;9.83;;;20.10;99.90;;;20.73;60.80;101810.59;4982802;28;99056;-53
2021/07/22 01:37:27;;;;;;;12.87;9.70;;;20.10;99.90;;;20.70;59.92;101814.31;4967006;28;98624;-54
2021/07/22 01:39:53;;;;;;;12.40;10.07;;;20.10;99.90;;;20.68;60.30;101807.28;4967389;28;115269;-53
2021/07/22 01:42:19;;;;;;;12.33;10.10;;;20.00;99.90;;;20.71;61.21;101809.81;4963002;28;99235;-54
2021/07/22 01:44:46;;;;;;;12.10;9.43;;;20.10;99.90;;;20.74;61.23;101812.31;4962385;28;112203;-55
2021/07/22 01:47:12;;;;;;;13.10;10.53;;;20.10;99.90;;;20.77;61.69;101806.75;4969402;28;99255;-54
2021/07/22 01:49:38;;;;;;;15.47;11.93;;;20.20;99.90;;;20.80;61.43;101806.56;4960050;28;98930;-50
2021/07/22 01:52:05;;;;;;;13.80;11.77;;;20.20;99.90;;;20.80;60.48;101803.88;4970219;28;99242;-53
2021/07/22 01:54:32;;;;;;;13.70;12.23;;;20.20;99.90;;;20.77;60.35;101798.72;4966583;28;99448;-50
2021/07/22 01:56:59;;;;;;;16.83;12.70;;;20.20;99.90;;;20.80;60.88;101809.25;4969344;28;98927;-54
2021/07/22 01:59:26;;;;;;;15.77;13.27;;;20.20;99.90;;;20.82;60.23;101801.97;4984140;27;103209;-48
2021/07/22 02:01:52;;;;;;;17.17;12.97;;;20.30;99.90;;;20.84;60.79;101802.75;4987976;28;98067;-48
2021/07/22 02:04:18;;;;;;;14.57;11.77;;;20.20;99.90;;;20.89;60.71;101799.78;4990709;28;97513;-53
2021/07/22 02:06:43;;;;;;;14.43;11.50;;;20.30;99.90;;;20.92;60.61;101800.47;4982805;28;97554;-50
2021/07/22 02:09:09;;;;;;;14.87;11.90;;;20.30;99.90;;;20.93;60.46;101795.94;4993681;28;100801;-54
2021/07/22 02:11:35;;;;;;;15.10;11.63;;;20.30;99.90;;;20.93;60.02;101796.81;4981130;28;114384;-57
2021/07/22 02:14:01;;;;;;;12.57;10.10;;;20.30;99.90;;;20.92;59.23;101789.72;4989486;28;97285;-48
2021/07/22 02:16:26;;;;;;;12.07;10.53;;;20.30;99.90;;;20.90;60.50;101790.78;4982843;28;99342;-48
2021/07/22 02:18:52;;;;;;;12.63;9.97;;;20.30;99.90;;;20.89;61.00;101795.28;4985360;28;99014;-49
2021/07/22 02:21:18;;;;;;;12.30;9.77;;;20.20;99.90;;;20.86;60.40;101795.47;4987183;28;103368;-52
2021/07/22 02:23:44;;;;;;;12.50;10.60;;;20.20;99.90;;;20.87;61.30;101797.19;4980555;28;111379;-50
2021/07/22 02:26:10;;;;;;;12.43;10.00;;;20.30;99.90;;;20.92;61.58;101795.09;4983392;28;96887;-49
2021/07/22 02:28:38;;;;;;;13.60;11.07;;;20.30;99.90;;;20.93;60.79;101795.94;4997899;28;129099;-49
2021/07/22 02:31:04;;;;;;;13.07;10.63;;;20.30;99.90;;;20.95;61.32;101794.91;4984081;28;113724;-51
2021/07/22 02:33:30;;;;;;;12.73;10.47;;;20.40;99.90;;;20.97;60.30;101795.66;4983318;28;102273;-53
2021/07/22 02:35:57;;;;;;;12.53;10.23;;;20.40;99.90;;;21.00;60.87;101797.31;4988087;28;97766;-52
2021/07/22 02:38:23;;;;;;;13.93;10.23;;;20.40;99.90;;;21.01;60.73;101799.91;4963815;28;97918;-48
2021/07/22 02:40:48;;;;;;;13.50;11.07;;;20.40;99.90;;;21.03;60.97;101803.34;5004144;28;97819;-54
2021/07/22 02:43:14;;;;;;;12.30;10.20;;;20.40;99.90;;;21.06;60.68;101796.94;4990048;28;107991;-50
2021/07/22 02:45:40;;;;;;;13.30;10.40;;;20.50;99.90;;;21.10;60.88;101795.78;5000931;28;100833;-51
2021/07/22 02:48:06;;;;;;;14.07;10.83;;;20.50;99.90;;;21.11;60.69;101802.88;4990665;28;106953;-51
2021/07/22 02:50:33;;;;;;;14.20;10.37;;;20.50;99.90;;;21.10;59.92;101799.31;4988048;28;97298;-50
2021/07/22 02:53:03;;;;;;;12.77;10.67;;;20.50;99.90;;;21.08;60.25;101801.25;4989288;28;98816;-51
2021/07/22 02:55:29;;;;;;;12.73;10.70;;;20.40;99.90;;;21.04;58.94;101798.84;4988031;28;97120;-50
2021/07/22 02:58:05;;;;;;;12.00;10.60;;;20.40;99.90;;;20.95;59.82;101794.91;4986998;28;100607;-52
2021/07/22 03:00:31;;;;;;;12.63;10.23;;;20.30;99.90;;;20.93;60.71;101802.19;4994404;28;98024;-51
2021/07/22 03:03:01;;;;;;;13.43;10.37;;;20.30;99.90;;;20.92;60.61;101795.09;4985706;28;99051;-49
2021/07/22 03:05:30;;;;;;;14.13;10.13;;;20.30;99.90;;;20.91;60.59;101797.88;4991612;28;97088;-50
2021/07/22 03:07:59;;;;;;;13.23;10.50;;;20.20;99.90;;;20.91;60.70;101795.19;4988413;28;97901;-53
2021/07/22 03:10:25;;;;;;;15.40;11.40;;;20.30;99.90;;;20.90;60.90;101797.00;4980782;28;98163;-54
2021/07/22 03:12:53;;;;;;;13.13;10.77;;;20.30;99.90;;;20.91;60.79;101797.88;5005243;28;97312;-56
2021/07/22 03:15:19;;;;;;;13.00;10.23;;;20.20;99.90;;;20.91;60.92;101798.72;4981186;28;98314;-50
2021/07/22 03:17:44;;;;;;;12.00;9.93;;;20.30;99.90;;;20.90;60.80;101794.31;4988049;28;102824;-51
2021/07/22 03:20:12;;;;;;;12.80;9.70;;;20.30;99.90;;;20.88;59.91;101793.56;4985367;28;100050;-47
2021/07/22 03:22:37;;;;;;;11.17;9.37;;;20.20;99.90;;;20.82;58.74;101793.91;4988402;28;98744;-54
2021/07/22 03:25:04;;;;;;;12.50;9.17;;;20.20;99.90;;;20.74;59.34;101790.84;4991295;28;96962;-52
2021/07/22 03:27:30;;;;;;;11.83;9.33;;;20.10;99.90;;;20.72;60.91;101799.00;4983242;28;97630;-54
2021/07/22 03:29:55;;;;;;;14.03;11.10;;;20.00;99.90;;;20.70;59.28;101808.09;4990797;28;98123;-48
2021/07/22 03:32:21;;;;;;;13.07;10.70;;;20.00;99.90;;;20.54;58.77;101820.66;4982925;28;97284;-51
2021/07/22 03:34:47;;;;;;;15.73;11.43;;;19.90;99.90;;;20.44;58.79;101805.13;4995539;28;96981;-50
2021/07/22 03:37:14;;;;;;;15.87;11.67;;;19.80;99.90;;;20.36;59.71;101807.34;4993568;28;99271;-50
2021/07/22 03:39:40;;;;;;;15.60;11.87;;;19.70;99.90;;;20.40;62.10;101808.91;4999581;28;97089;-52
2021/07/22 03:42:06;;;;;;;15.20;11.27;;;19.70;99.90;;;20.40;60.19;101808.06;4988920;28;98414;-51
2021/07/22 03:44:32;;;;;;;15.80;11.93;;;19.80;99.90;;;20.26;58.65;101803.50;5000958;27;97089;-48
2021/07/22 03:46:58;;;;;;;16.20;11.43;;;19.70;99.90;;;20.19;58.97;101804.78;4996526;28;99952;-49
2021/07/22 03:49:25;;;;;;;13.23;10.83;;;19.60;99.90;;;20.17;61.06;101802.22;4993567;28;103631;-52
2021/07/22 03:51:58;;;;;;;14.90;10.80;;;19.50;99.90;;;20.28;61.85;101809.63;4989659;28;97308;-48
2021/07/22 03:54:24;;;;;;;13.17;11.20;;;19.60;99.90;;;20.31;61.20;101809.44;4983748;28;97367;-50
2021/07/22 03:56:50;;;;;;;13.83;11.00;;;19.70;99.90;;;20.25;60.57;101808.91;5007544;28;97032;-50
2021/07/22 03:59:19;;;;;;;13.07;11.27;;;19.60;99.90;;;20.21;61.52;101808.25;4986396;28;97816;-51
2021/07/22 04:01:45;;;;;;;14.07;11.33;;;19.50;99.90;;;20.25;61.64;101809.78;5002963;28;96788;-51
2021/07/22 04:04:11;;;;;;;13.43;10.87;;;19.50;99.90;;;20.25;61.00;101812.47;4988409;28;97148;-52
2021/07/22 04:06:37;;;;;;;12.97;10.40;;;19.60;99.90;;;20.29;62.27;101811.34;4986891;28;97374;-51
2021/07/22 04:09:04;;;;;;;14.30;11.50;;;19.60;99.90;;;20.33;62.18;101810.22;4991742;28;97234;-49
2021/07/22 04:11:30;;;;;;;12.73;9.77;;;19.70;99.90;;;20.36;61.27;101807.34;4980539;28;97468;-48
2021/07/22 04:13:56;;;;;;;12.60;10.63;;;19.70;99.90;;;20.32;61.69;101804.94;4995770;28;97190;-48
2021/07/22 04:16:22;;;;;;;12.50;9.80;;;19.60;99.90;;;20.33;62.38;101796.81;4985670;28;100889;-48
2021/07/22 04:18:48;;;;;;;13.60;10.87;;;19.60;99.90;;;20.30;61.54;101797.00;4991631;28;98472;-49
2021/07/22 04:21:14;;;;;;;14.10;10.63;;;19.60;99.90;;;20.31;62.25;101793.38;5001470;28;103194;-48
2021/07/22 04:23:41;;;;;;;12.73;10.63;;;19.60;99.90;;;20.32;62.17;101791.56;4980598;28;97410;-47
2021/07/22 04:26:07;;;;;;;15.57;11.27;;;19.60;99.90;;;20.33;62.02;101791.47;4986507;28;99941;-46
2021/07/22 04:28:32;;;;;;;13.57;10.47;;;19.60;99.90;;;20.34;60.68;101795.88;4985129;28;104977;-47
2021/07/22 04:30:58;;;;;;;13.63;10.43;;;19.70;99.90;;;20.34;61.10;101800.34;5002519;27;97019;-48
2021/07/22 04:33:24;;;;;;;13.17;10.57;;;19.70;99.90;;;20.31;61.21;101809.44;4978373;28;97890;-47
2021/07/22 04:35:56;;;;;;;14.13;10.73;;;19.60;99.90;;;20.28;60.69;101801.59;4987207;28;101218;-51
2021/07/22 04:40:49;;;;;;;15.20;11.10;;;19.60;99.90;;;20.32;62.31;101808.50;4890301;28;101377;-54
2021/07/22 04:43:15;;;;;;;12.77;11.00;;;19.70;99.90;;;20.37;61.94;101808.22;4934520;28;97268;-51
2021/07/22 04:45:41;;;;;;;15.47;10.50;;;19.70;99.90;;;20.41;62.41;101810.69;4935233;28;97640;-50
2021/07/22 04:48:07;;;;;;;13.83;11.33;;;19.80;99.90;;;20.44;60.86;101801.59;4946920;28;97541;-49
2021/07/22 04:50:32;;;;;;;15.27;11.37;;;19.80;99.90;;;20.44;61.00;101804.28;4926612;28;97150;-51
2021/07/22 04:53:02;;;;;;;15.90;10.27;;;19.80;99.90;;;20.40;61.42;101808.91;4928701;28;97499;-56
2021/07/22 04:55:27;;;;;;;15.20;11.47;;;19.70;99.90;;;20.45;62.17;101803.31;4950952;28;98572;-53
2021/07/22 04:58:00;;;;;;;15.57;10.50;;;19.80;99.90;;;20.47;61.88;101809.44;4955141;28;98076;-53
2021/07/22 05:00:26;;;;;;;11.57;9.47;;;19.80;99.90;;;20.52;62.70;101806.47;4941232;28;100015;-48
2021/07/22 05:02:59;;;;;;;10.33;7.33;;;19.90;99.90;;;20.64;62.46;101811.13;4932901;28;97383;-54
2021/07/22 05:05:27;;;;;;;7.30;6.43;;;20.00;99.90;;;20.76;62.23;101799.66;4942748;28;99406;-50
2021/07/22 05:07:53;;;;;;;10.73;9.07;;;20.20;99.90;;;20.91;61.62;101809.47;4950489;28;97050;-48
2021/07/22 05:10:19;;;;;;;10.70;8.53;;;20.50;99.90;;;21.01;61.38;101805.28;4965203;28;97354;-48
2021/07/22 05:12:44;;;;;;;9.40;8.20;;;20.60;99.90;;;21.10;61.07;101815.41;4947284;28;96992;-48
2021/07/22 05:15:11;;;;;;;11.57;9.37;;;20.70;99.90;;;21.19;60.73;101815.81;4938005;28;97445;-47
2021/07/22 05:17:38;;;;;;;8.47;7.57;;;20.70;99.90;;;21.23;60.39;101814.66;4952570;28;97213;-47
2021/07/22 05:20:05;;;;;;;10.20;8.90;;;20.80;99.90;;;21.31;60.24;101815.09;4954709;28;97302;-48
2021/07/22 05:22:32;;;;;;;10.53;8.77;;;20.90;99.90;;;21.34;59.87;101818.44;4949774;28;100578;-48
2021/07/22 05:24:57;;;;;;;9.47;8.00;;;20.90;99.90;;;21.37;60.06;101817.38;4951855;28;100119;-47
2021/07/22 05:27:24;;;;;;;9.47;8.13;;;20.90;99.90;;;21.43;60.06;101811.66;4965584;28;96765;-49
2021/07/22 05:29:50;;;;;;;7.33;6.63;;;21.00;99.90;;;21.52;59.84;101819.09;4960963;28;97490;-47
2021/07/22 05:32:16;;;;;;;8.43;6.37;;;21.10;99.90;;;21.62;59.55;101816.69;4972962;28;96940;-47
2021/07/22 05:34:41;;;;;;;7.97;6.50;;;21.30;99.90;;;21.69;59.25;101818.03;4942687;28;97523;-47
2021/07/22 05:37:08;;;;;;;8.77;6.60;;;21.40;99.90;;;21.73;59.16;101814.19;4960348;28;99946;-48
2021/07/22 05:39:34;;;;;;;7.07;6.37;;;21.40;99.90;;;21.81;58.93;101813.69;4958157;28;98115;-48
2021/07/22 05:42:00;;;;;;;7.00;6.27;;;21.50;99.90;;;21.86;58.85;101816.97;4957249;28;97281;-47
2021/07/22 05:44:26;;;;;;;8.87;6.30;;;21.60;99.90;;;21.89;58.62;101819.44;4942705;28;97342;-47
2021/07/22 05:46:52;;;;;;;12.03;9.30;;;21.60;99.90;;;21.93;58.25;101815.59;4958316;28;98421;-47
2021/07/22 05:49:18;;;;;;;6.37;5.77;;;21.60;99.90;;;21.93;58.55;101820.97;4950012;28;97515;-48
2021/07/22 05:51:43;;;;;;;10.50;9.23;;;21.60;99.90;;;21.94;58.06;101817.31;4946524;28;97388;-47
2021/07/22 05:54:12;;;;;;;18.20;11.53;;;21.60;99.90;;;21.96;58.21;101818.06;4950725;28;100033;-47
2021/07/22 05:56:38;;;;;;;8.90;7.97;;;21.60;99.90;;;21.95;58.38;101824.41;4948278;28;99113;-47
2021/07/22 05:59:04;;;;;;;7.13;6.43;;;21.60;99.90;;;21.97;58.31;101827.84;4959823;28;99971;-49
2021/07/22 06:01:30;;;;;;;9.33;7.93;;;21.60;99.90;;;21.97;58.19;101822.47;4956848;28;97445;-49
2021/07/22 06:03:56;;;;;;;9.53;8.23;;;21.60;99.90;;;21.96;58.34;101820.75;4935515;28;104216;-47
2021/07/22 06:06:22;;;;;;;7.40;6.57;;;21.60;99.90;;;21.97;58.21;101822.47;4945188;28;98544;-50
2021/07/22 06:08:49;;;;;;;11.67;9.07;;;21.60;99.90;;;21.98;58.43;101821.50;4949466;28;97193;-50
2021/07/22 06:11:15;;;;;;;7.23;6.43;;;21.60;99.90;;;22.00;58.28;101827.66;4971369;28;96922;-48
2021/07/22 06:13:42;;;;;;;6.77;6.07;;;21.60;99.90;;;22.03;58.29;101824.78;4955760;28;98325;-48
2021/07/22 06:16:14;;;;;;;6.30;5.70;;;21.70;99.90;;;22.09;58.08;101827.09;4951198;28;97584;-47
2021/07/22 06:18:40;;;;;;;7.20;6.30;;;21.80;99.90;;;22.12;58.23;101826.88;4955129;28;97306;-48
2021/07/22 06:21:11;;;;;;;6.93;6.17;;;21.80;99.90;;;22.16;58.03;101825.72;4961989;28;97239;-47
2021/07/22 06:23:37;;;;;;;6.87;6.23;;;21.90;99.90;;;22.22;57.73;101833.38;4952804;28;98047;-47
2021/07/22 06:26:02;;;;;;;6.50;5.80;;;22.00;99.90;;;22.25;57.67;101825.09;4950705;28;97576;-47
2021/07/22 06:28:29;;;;;;;6.53;5.90;;;22.10;99.90;;;22.34;57.38;101825.47;4954416;28;96899;-48
2021/07/22 06:30:56;;;;;;;6.73;6.00;;;22.20;99.90;;;22.41;57.16;101826.78;4939843;28;97281;-48
2021/07/22 06:33:23;;;;;;;7.03;5.93;;;22.30;99.90;;;22.47;57.06;101823.69;4943576;28;97188;-46
2021/07/22 06:35:49;;;;;;;16.13;11.00;;;22.30;99.90;;;22.49;56.48;101829.81;4963316;28;99520;-55
2021/07/22 06:38:15;;;;;;;7.27;6.47;;;22.30;99.90;;;22.50;56.92;101820.78;4942221;28;97345;-50
2021/07/22 06:40:42;;;;;;;9.70;7.67;;;22.30;99.90;;;22.51;56.88;101825.19;4950915;28;97208;-53
2021/07/22 06:43:12;;;;;;;14.73;10.77;;;22.30;99.90;;;22.52;56.62;101821.53;4965873;28;98218;-49
2021/07/22 06:45:42;;;;;;;6.83;6.13;;;22.40;99.90;;;22.54;56.81;101816.91;4947538;28;97710;-47
2021/07/22 06:48:08;;;;;;;6.53;5.63;;;22.40;99.90;;;22.58;56.63;101820.28;4961155;28;97282;-47
2021/07/22 06:50:36;;;;;;;9.27;8.00;;;22.50;99.90;;;22.59;56.51;101825.56;4955656;28;97024;-51
2021/07/22 06:53:03;;;;;;;12.50;8.77;;;22.50;99.90;;;22.60;56.42;101821.91;4960825;28;99117;-52
2021/07/22 06:55:31;;;;;;;18.53;13.07;;;22.50;99.90;;;22.57;56.33;101822.13;4955105;28;99828;-52
2021/07/22 06:58:11;;;;;;;14.37;11.20;;;22.40;99.90;;;22.54;56.52;101827.66;4939665;28;97254;-52
2021/07/22 07:00:37;;;;;;;15.90;12.53;;;22.30;99.90;;;22.51;56.62;101826.06;4960409;28;97284;-54
2021/07/22 07:03:09;;;;;;;7.53;6.33;;;22.30;99.90;;;22.49;56.77;101825.31;4930238;28;97403;-53
2021/07/22 07:05:35;;;;;;;6.47;5.80;;;22.30;99.90;;;22.49;56.83;101819.94;4943133;28;99243;-49
2021/07/22 07:08:01;;;;;;;16.33;11.23;;;22.30;99.90;;;22.48;56.89;101817.34;4946347;28;97511;-52
2021/07/22 07:10:28;;;;;;;15.17;12.00;;;22.30;99.90;;;22.46;56.84;101825.50;4948525;28;98178;-53
2021/07/22 07:12:54;;;;;;;15.43;11.47;;;22.20;99.90;;;22.44;56.98;101826.59;4943669;28;100956;-50
2021/07/22 07:15:20;;;;;;;15.23;11.50;;;22.20;99.90;;;22.43;57.07;101824.88;4936389;28;97228;-54
2021/07/22 07:17:46;;;;;;;15.83;10.80;;;22.20;99.90;;;22.40;57.25;101823.22;4925735;28;97165;-48
2021/07/22 07:20:13;;;;;;;7.47;6.63;;;22.20;99.90;;;22.40;57.35;101830.41;4945386;28;97062;-53
2021/07/22 07:22:39;;;;;;;6.60;5.77;;;22.10;99.90;;;22.42;57.32;101825.81;4943432;28;97642;-49
2021/07/22 07:25:06;;;;;;;6.07;5.40;;;22.20;99.90;;;22.45;57.09;101822.94;4942078;28;101788;-53
2021/07/22 07:27:32;;;;;;;6.17;5.43;;;22.20;99.90;;;22.50;56.96;101820.78;4934353;28;97456;-48
2021/07/22 07:29:58;;;;;;;6.33;5.23;;;22.30;99.90;;;22.54;56.91;101817.78;4941716;28;97376;-47
2021/07/22 07:32:24;;;;;;;5.60;5.10;;;22.40;99.90;;;22.58;56.81;101813.06;4956879;28;97369;-48
2021/07/22 07:34:49;;;;;;;10.67;8.33;;;22.50;99.90;;;22.61;56.59;101818.25;4951575;28;102389;-48
2021/07/22 07:37:15;;;;;;;5.60;5.03;;;22.50;99.90;;;22.63;56.71;101824.38;4962090;28;108502;-49
2021/07/22 07:39:41;;;;;;;6.77;6.00;;;22.50;99.90;;;22.67;56.55;101825.00;4948594;28;96977;-48
2021/07/22 07:42:07;;;;;;;7.13;5.57;;;22.60;99.90;;;22.69;56.40;101821.25;4945525;28;123528;-48
2021/07/22 07:44:33;;;;;;;6.13;5.50;;;22.60;99.90;;;22.71;56.29;101824.72;4950821;28;97733;-49
2021/07/22 07:46:58;;;;;;;6.00;5.40;;;22.70;99.90;;;22.75;56.28;101818.16;4949810;28;104536;-50
2021/07/22 07:49:24;;;;;;;6.20;5.60;;;22.70;99.90;;;22.79;56.12;101816.97;4948472;28;97706;-47
2021/07/22 07:51:50;;;;;;;6.73;5.63;;;22.70;99.90;;;22.82;56.06;101821.28;4955342;28;97611;-47
2021/07/22 07:54:22;;;;;;;6.97;6.20;;;22.70;99.90;;;22.82;56.14;101816.78;4970725;28;100550;-47
2021/07/22 07:56:51;;;;;;;5.97;5.37;;;22.80;99.90;;;22.85;55.99;101815.72;4936847;28;97052;-50
2021/07/22 07:59:18;;;;;;;7.73;6.00;;;22.80;99.90;;;22.88;55.82;101814.66;4944515;28;97274;-48
2021/07/22 08:01:44;;;;;;;6.37;5.77;;;22.80;99.90;;;22.83;55.97;101818.50;4948883;28;99604;-47
2021/07/22 08:04:11;;;;;;;6.67;6.00;;;22.80;99.90;;;22.84;55.89;101809.47;4960648;28;98387;-49
2021/07/22 08:06:37;;;;;;;6.00;5.23;;;22.90;99.90;;;22.87;55.95;101821.00;4960839;28;96782;-47
2021/07/22 08:09:04;;;;;;;6.73;5.73;;;22.90;99.90;;;22.91;55.82;101811.75;4966619;28;97402;-50
2021/07/22 08:11:30;;;;;;;7.97;6.40;;;22.90;99.90;;;22.95;55.62;101815.94;4963449;28;97750;-48
2021/07/22 08:13:55;;;;;;;7.07;5.53;;;22.90;99.90;;;22.95;55.65;101814.13;4955252;28;97164;-47
2021/07/22 08:16:21;;;;;;;6.43;5.60;;;22.90;99.90;;;22.96;55.33;101812.28;4939953;28;97075;-56
2021/07/22 08:18:50;;;;;;;14.63;10.43;;;22.90;99.90;;;22.97;55.66;101812.19;4955022;28;97112;-49
2021/07/22 08:21:17;;;;;;;17.17;12.00;;;22.90;99.90;;;22.95;55.52;101810.56;4965995;28;100200;-48
2021/07/22 08:23:42;;;;;;;16.53;10.87;;;22.90;99.90;;;22.95;55.69;101810.56;4957345;28;97677;-51
2021/07/22 08:26:09;;;;;;;19.87;11.90;;;22.90;99.90;;;22.92;55.51;101810.78;4965124;28;97065;-47
2021/07/22 08:28:36;;;;;;;14.63;11.10;;;22.80;99.90;;;22.85;54.74;101805.81;4945296;28;97379;-48
2021/07/22 08:31:03;;;;;;;13.37;11.53;;;22.70;99.90;;;22.77;55.18;101802.78;4963388;28;98167;-47
2021/07/22 08:33:30;;;;;;;17.23;12.00;;;22.60;99.90;;;22.68;55.31;101803.38;4947131;28;98234;-53
2021/07/22 08:35:56;;;;;;;7.67;6.57;;;22.40;99.90;;;22.69;56.21;101802.44;4939230;28;99020;-49
2021/07/22 08:38:22;;;;;;;6.63;6.03;;;22.50;99.90;;;22.71;56.28;101803.22;4944199;28;97536;-55
2021/07/22 08:40:48;;;;;;;7.30;6.30;;;22.60;99.90;;;22.74;56.20;101794.91;4941080;28;99866;-54
2021/07/22 08:43:13;;;;;;;6.73;5.83;;;22.70;99.90;;;22.76;56.22;101798.38;4942401;28;98450;-54
2021/07/22 08:45:39;;;;;;;18.00;10.57;;;22.70;99.90;;;22.82;55.99;101803.34;4932309;28;97084;-53
2021/07/22 08:48:05;;;;;;;15.33;11.40;;;22.80;99.90;;;22.84;55.71;101797.84;4946302;28;97224;-55
2021/07/22 08:50:31;;;;;;;9.10;7.10;;;22.80;99.90;;;22.86;55.86;101804.00;4946213;28;97226;-53
2021/07/22 08:52:57;;;;;;;14.70;10.80;;;22.80;99.90;;;22.90;55.53;101801.97;4963682;28;99382;-50
2021/07/22 08:55:23;;;;;;;16.53;12.03;;;22.90;99.90;;;22.90;56.17;101801.97;4963000;28;98693;-54
2021/07/22 08:57:49;;;;;;;14.83;12.67;;;22.80;99.90;;;22.90;55.59;101797.44;4933293;28;97145;-51
2021/07/22 09:00:17;;;;;;;14.80;12.63;;;22.90;99.90;;;22.93;55.12;101796.38;4944359;28;98628;-55
2021/07/22 09:02:43;;;;;;;15.90;12.20;;;22.90;99.90;;;22.94;55.10;101795.41;4942405;28;97496;-51
2021/07/22 09:05:10;;;;;;;21.53;12.40;;;22.90;99.90;;;22.95;55.55;101794.41;4964745;28;97360;-48
2021/07/22 09:07:36;;;;;;;17.37;11.80;;;22.90;99.90;;;22.93;55.39;101799.91;4957633;28;99158;-47
2021/07/22 09:10:05;;;;;;;20.23;14.10;;;22.90;99.90;;;22.95;54.43;101789.03;4953140;28;98397;-53
2021/07/22 09:12:46;;;;;;;7.80;6.07;;;22.90;99.90;;;22.98;55.69;101791.50;4938226;28;97597;-49
2021/07/22 09:15:21;;;;;;;14.67;11.20;;;22.90;99.90;;;22.98;54.52;101788.81;4947701;28;96923;-53
2021/07/22 09:17:47;;;;;;;14.87;12.00;;;22.90;99.90;;;22.97;52.97;101797.88;4927763;28;97143;-49
2021/07/22 09:20:32;;;;;;;13.87;11.53;;;22.90;99.90;;;23.02;53.83;101784.97;4932346;28;99523;-49
2021/07/22 09:23:00;;;;;;;12.63;10.17;;;22.90;99.90;;;23.02;54.56;101783.13;4946921;28;101414;-51
2021/07/22 09:25:47;;;;;;;14.53;10.80;;;23.00;99.90;;;23.06;53.03;101791.84;4939957;28;97637;-51
2021/07/22 09:28:25;;;;;;;14.83;10.83;;;23.00;99.90;;;23.05;53.41;101788.31;4961130;28;97421;-49
2021/07/22 09:31:04;;;;;;;13.47;9.77;;;23.00;99.90;;;23.09;52.74;101791.63;4930070;28;103024;-50
2021/07/22 09:33:39;;;;;;;11.80;9.70;;;23.00;99.90;;;23.11;50.55;101792.38;4928552;28;104101;-48
2021/07/22 09:36:08;;;;;;;11.47;9.20;;;23.00;99.90;;;23.12;51.78;101786.88;4957352;28;97157;-50
2021/07/22 09:38:34;;;;;;;7.50;6.80;;;23.10;99.90;;;23.13;53.43;101787.75;4941759;28;101443;-51
2021/07/22 09:41:00;;;;;;;11.07;8.10;;;23.10;99.90;;;23.16;49.13;101779.47;4927942;28;98929;-54
2021/07/22 09:43:41;;;;;;;12.13;8.43;;;23.10;99.00;;;23.22;49.72;101780.84;4938496;28;106688;-49
2021/07/22 09:46:08;;;;;;;13.00;9.93;;;23.20;99.70;;;23.20;50.95;101775.59;4947877;28;97267;-52
2021/07/22 09:48:34;;;;;;;14.33;10.97;;;23.20;99.60;;;23.21;48.97;101777.31;4946495;28;97414;-51
2021/07/22 09:51:00;;;;;;;16.20;12.80;;;23.20;98.80;;;23.22;49.35;101770.94;4966702;28;99895;-55
2021/07/22 09:53:27;;;;;;;15.13;10.97;;;23.20;98.70;;;23.24;52.42;101766.31;4946749;28;112675;-52
2021/07/22 09:55:56;;;;;;;16.97;12.40;;;23.20;99.90;;;23.28;48.04;101770.50;4972503;28;97847;-50
2021/07/22 09:58:22;;;;;;;15.80;12.10;;;23.20;98.00;;;23.30;49.10;101768.59;4954250;28;97216;-55
2021/07/22 10:00:51;;;;;;;8.67;7.00;;;23.30;98.10;;;23.23;54.06;101769.97;4938178;28;97714;-50
2021/07/22 10:03:19;;;;;;;8.30;6.83;;;23.20;99.90;;;23.17;54.53;101762.34;4961822;28;97288;-58
2021/07/22 10:06:00;;;;;;;7.87;7.07;;;23.20;99.90;;;23.17;54.47;101765.03;4959757;28;97337;-49